createdAt,value
2018-03-03T00:02:01.417Z,96391.27
2018-03-03T00:04:29.752Z,96394.94
2018-03-03T00:06:58.092Z,96388.94
2018-03-03T00:09:26.637Z,96389.07
2018-03-03T00:11:54.972Z,96397.19
2018-03-03T00:14:23.337Z,96396.43
2018-03-03T00:16:51.668Z,96395.33
2018-03-03T00:19:20.380Z,96401.81
2018-03-03T00:21:49.491Z,96401.10
2018-03-03T00:24:18.364Z,96396.55
2018-03-03T00:26:46.717Z,96401.41
2018-03-03T00:29:15.049Z,96404.77
2018-03-03T00:31:43.456Z,96400.00
2018-03-03T00:34:11.783Z,96401.38
2018-03-03T00:36:40.773Z,96396.87
2018-03-03T00:39:09.107Z,96391.41
2018-03-03T00:41:37.455Z,96392.12
2018-03-03T00:44:05.807Z,96393.36
2018-03-03T00:46:34.140Z,96394.45
2018-03-03T00:49:02.501Z,96382.78
2018-03-03T00:51:31.409Z,96383.43
2018-03-03T00:53:59.793Z,96372.39
2018-03-03T00:56:28.119Z,96384.79
2018-03-03T00:58:57.207Z,96372.86
2018-03-03T01:01:26.324Z,96373.00
2018-03-03T01:03:55.419Z,96376.59
2018-03-03T01:06:24.552Z,96374.30
2018-03-03T01:08:53.002Z,96379.23
2018-03-03T01:11:21.343Z,96375.36
2018-03-03T01:13:49.892Z,96382.02
2018-03-03T01:16:18.224Z,96381.77
2018-03-03T01:18:47.396Z,96382.21
2018-03-03T01:21:15.834Z,96391.68
2018-03-03T01:23:44.173Z,96389.04
2018-03-03T01:26:12.520Z,96389.45
2018-03-03T01:28:40.992Z,96392.92
2018-03-03T01:31:09.799Z,96384.42
2018-03-03T01:33:38.125Z,96377.73
2018-03-03T01:36:07.115Z,96375.58
2018-03-03T01:38:35.469Z,96386.27
2018-03-03T01:41:03.942Z,96379.34
2018-03-03T01:43:32.350Z,96395.34
2018-03-03T01:46:01.116Z,96395.95
2018-03-03T01:48:29.457Z,96392.43
2018-03-03T01:50:57.805Z,96387.24
2018-03-03T01:53:26.213Z,96379.50
2018-03-03T01:55:54.550Z,96381.56
2018-03-03T01:58:23.752Z,96379.78
2018-03-03T02:00:52.088Z,96374.66
2018-03-03T02:03:20.408Z,96375.64
2018-03-03T02:05:48.768Z,96369.23
2018-03-03T02:08:17.092Z,96376.09
2018-03-03T02:10:45.452Z,96364.80
2018-03-03T02:13:13.772Z,96361.62
2018-03-03T02:15:42.271Z,96358.78
2018-03-03T02:18:10.623Z,96348.75
2018-03-03T02:20:38.955Z,96346.92
2018-03-03T02:23:08.096Z,96345.98
2018-03-03T02:25:36.429Z,96344.61
2018-03-03T02:28:04.765Z,96338.53
2018-03-03T02:30:33.141Z,96332.31
2018-03-03T02:33:02.442Z,96326.91
2018-03-03T02:35:30.796Z,96325.52
2018-03-03T02:37:59.189Z,96317.95
2018-03-03T02:40:27.534Z,96321.56
2018-03-03T02:42:55.867Z,96317.27
2018-03-03T02:45:24.229Z,96308.46
2018-03-03T02:47:52.556Z,96302.58
2018-03-03T02:50:20.903Z,96299.84
2018-03-03T02:52:49.248Z,96305.45
2018-03-03T02:55:17.573Z,96306.55
2018-03-03T02:57:45.929Z,96303.09
2018-03-03T03:00:14.277Z,96305.48
2018-03-03T03:02:42.711Z,96301.86
2018-03-03T03:05:11.851Z,96300.33
2018-03-03T03:07:40.180Z,96298.44
2018-03-03T03:10:08.523Z,96294.70
2018-03-03T03:12:36.852Z,96290.53
2018-03-03T03:15:05.978Z,96293.19
2018-03-03T03:17:34.516Z,96290.05
2018-03-03T03:20:02.845Z,96282.66
2018-03-03T03:22:31.172Z,96274.95
2018-03-03T03:25:02.427Z,96271.59
2018-03-03T03:27:31.057Z,96264.11
2018-03-03T03:29:59.801Z,96268.17
2018-03-03T03:32:28.156Z,96264.70
2018-03-03T03:34:56.539Z,96260.33
2018-03-03T03:37:24.880Z,96274.44
2018-03-03T03:39:53.351Z,96267.91
2018-03-03T03:42:22.062Z,96276.34
2018-03-03T03:44:50.424Z,96272.19
2018-03-03T03:47:18.801Z,96266.56
2018-03-03T03:49:47.132Z,96269.00
2018-03-03T03:52:16.490Z,96263.53
2018-03-03T03:54:44.913Z,96259.03
2018-03-03T03:57:13.256Z,96258.26
2018-03-03T03:59:41.583Z,96253.34
2018-03-03T04:02:13.943Z,96247.20
2018-03-03T04:04:42.313Z,96240.11
2018-03-03T04:07:11.413Z,96238.20
2018-03-03T04:09:40.256Z,96244.30
2018-03-03T04:12:08.585Z,96232.52
2018-03-03T04:14:37.673Z,96223.97
2018-03-03T04:17:06.243Z,96219.43
2018-03-03T04:19:34.593Z,96216.25
2018-03-03T04:22:02.920Z,96208.52
2018-03-03T04:24:32.059Z,96201.55
2018-03-03T04:27:01.152Z,96201.92
2018-03-03T04:29:29.487Z,96197.57
2018-03-03T04:31:57.844Z,96198.85
2018-03-03T04:34:26.177Z,96200.28
2018-03-03T04:36:54.551Z,96203.39
2018-03-03T04:39:22.873Z,96196.81
2018-03-03T04:41:51.192Z,96195.59
2018-03-03T04:44:20.381Z,96194.91
2018-03-03T04:46:48.724Z,96189.23
2018-03-03T04:49:17.100Z,96186.53
2018-03-03T04:51:45.431Z,96176.95
2018-03-03T04:54:13.768Z,96180.44
2018-03-03T04:56:42.224Z,96183.83
2018-03-03T04:59:26.348Z,96184.33
2018-03-03T05:02:00.052Z,96183.86
2018-03-03T05:04:46.924Z,96185.61
2018-03-03T05:20:48.376Z,96174.50
2018-03-03T05:23:21.072Z,96172.64
2018-03-03T05:39:20.944Z,96165.45
2018-03-03T05:55:23.604Z,96162.55
2018-03-03T06:11:24.375Z,96153.20
2018-03-03T06:13:52.745Z,96153.73
2018-03-03T06:16:21.488Z,96158.55
2018-03-03T06:18:49.888Z,96155.15
2018-03-03T06:21:18.231Z,96158.64
2018-03-03T06:23:46.599Z,96153.56
2018-03-03T06:26:14.941Z,96154.03
2018-03-03T06:28:43.295Z,96157.05
2018-03-03T06:31:11.633Z,96167.02
2018-03-03T06:33:40.000Z,96168.47
2018-03-03T06:36:08.320Z,96171.12
2018-03-03T06:38:36.648Z,96172.23
2018-03-03T06:41:05.000Z,96177.41
2018-03-03T06:43:33.395Z,96172.70
2018-03-03T06:46:01.761Z,96168.32
2018-03-03T06:48:30.399Z,96163.78
2018-03-03T06:50:58.719Z,96161.74
2018-03-03T06:53:27.104Z,96157.35
2018-03-03T06:55:56.196Z,96154.80
2018-03-03T06:58:25.284Z,96156.92
2018-03-03T07:00:54.083Z,96156.40
2018-03-03T07:03:22.428Z,96155.38
2018-03-03T07:05:50.758Z,96156.65
2018-03-03T07:08:19.124Z,96155.45
2018-03-03T07:10:47.451Z,96158.11
2018-03-03T07:13:15.792Z,96150.98
2018-03-03T07:15:44.151Z,96151.52
2018-03-03T07:18:12.827Z,96155.27
2018-03-03T07:20:41.204Z,96149.89
2018-03-03T07:23:09.541Z,96154.48
2018-03-03T07:25:37.905Z,96159.38
2018-03-03T07:28:06.232Z,96162.92
2018-03-03T07:30:35.211Z,96168.94
2018-03-03T07:33:03.536Z,96174.59
2018-03-03T07:35:31.916Z,96173.52
2018-03-03T07:38:00.249Z,96175.52
2018-03-03T07:40:29.052Z,96168.60
2018-03-03T07:42:57.383Z,96177.19
2018-03-03T07:45:25.751Z,96177.80
2018-03-03T07:47:54.140Z,96170.08
2018-03-03T07:50:22.468Z,96167.36
2018-03-03T07:52:51.108Z,96168.55
2018-03-03T07:55:19.480Z,96167.95
2018-03-03T07:57:47.796Z,96167.83
2018-03-03T08:00:16.113Z,96163.54
2018-03-03T08:02:44.571Z,96161.85
2018-03-03T08:05:12.880Z,96153.73
2018-03-03T08:07:41.303Z,96157.19
2018-03-03T08:10:09.612Z,96155.42
2018-03-03T08:12:37.418Z,96147.48
2018-03-03T08:15:05.729Z,96144.24
2018-03-03T08:17:34.049Z,96140.53
2018-03-03T08:20:02.409Z,96138.91
2018-03-03T08:22:31.289Z,96134.38
2018-03-03T08:24:59.628Z,96132.63
2018-03-03T08:27:28.694Z,96130.47
2018-03-03T08:29:57.017Z,96136.20
2018-03-03T08:32:25.328Z,96142.63
2018-03-03T08:34:53.684Z,96133.69
2018-03-03T08:37:22.000Z,96138.32
2018-03-03T08:39:50.869Z,96132.62
2018-03-03T08:42:19.237Z,96139.41
2018-03-03T08:44:48.295Z,96140.25
2018-03-03T08:47:16.612Z,96136.27
2018-03-03T08:49:45.357Z,96124.13
2018-03-03T08:52:13.671Z,96122.52
2018-03-03T08:54:41.996Z,96124.62
2018-03-03T08:57:10.821Z,96125.29
2018-03-03T08:59:39.920Z,96114.94
2018-03-03T09:02:08.228Z,96119.39
2018-03-03T09:04:36.644Z,96117.31
2018-03-03T09:07:05.705Z,96110.88
2018-03-03T09:09:34.279Z,96113.78
2018-03-03T09:12:02.592Z,96108.06
2018-03-03T09:14:32.467Z,96109.71
2018-03-03T09:17:00.905Z,96105.41
2018-03-03T09:19:29.223Z,96108.36
2018-03-03T09:21:57.552Z,96101.31
2018-03-03T09:24:25.865Z,96101.50
2018-03-03T09:26:54.688Z,96101.14
2018-03-03T09:29:23.005Z,96100.29
2018-03-03T09:31:51.311Z,96098.67
2018-03-03T09:34:19.653Z,96097.09
2018-03-03T09:36:47.972Z,96096.20
2018-03-03T09:39:16.636Z,96093.81
2018-03-03T09:41:44.958Z,96083.30
2018-03-03T09:44:13.280Z,96086.73
2018-03-03T09:46:41.629Z,96096.47
2018-03-03T09:49:10.732Z,96102.90
2018-03-03T09:51:39.072Z,96099.95
2018-03-03T09:54:07.396Z,96095.12
2018-03-03T09:56:35.776Z,96090.94
2018-03-03T09:59:04.087Z,96094.68
2018-03-03T10:01:32.417Z,96086.13
2018-03-03T10:04:00.767Z,96077.48
2018-03-03T10:06:29.084Z,96073.13
2018-03-03T10:08:57.400Z,96074.48
2018-03-03T10:11:25.848Z,96070.58
2018-03-03T10:13:54.572Z,96073.67
2018-03-03T10:16:23.512Z,96064.72
2018-03-03T10:18:51.821Z,96058.40
2018-03-03T10:21:20.849Z,96064.27
2018-03-03T10:23:49.279Z,96063.16
2018-03-03T10:26:18.234Z,96058.47
2018-03-03T10:28:47.320Z,96053.95
2018-03-03T10:31:15.780Z,96054.30
2018-03-03T10:33:44.692Z,96055.09
2018-03-03T10:36:13.049Z,96053.56
2018-03-03T10:38:41.367Z,96054.33
2018-03-03T10:41:10.520Z,96055.89
2018-03-03T10:43:38.853Z,96055.28
2018-03-03T10:46:07.543Z,96058.86
2018-03-03T10:48:35.876Z,96047.08
2018-03-03T10:51:04.961Z,96044.86
2018-03-03T10:53:33.281Z,96044.33
2018-03-03T10:56:02.460Z,96045.09
2018-03-03T10:58:30.818Z,96036.78
2018-03-03T11:01:00.114Z,96038.21
2018-03-03T11:03:28.503Z,96029.82
2018-03-03T11:05:56.828Z,96035.72
2018-03-03T11:08:26.238Z,96032.35
2018-03-03T11:10:56.224Z,96022.92
2018-03-03T11:13:24.554Z,96024.16
2018-03-03T11:15:52.904Z,96023.41
2018-03-03T11:18:21.353Z,96027.56
2018-03-03T11:20:49.495Z,96027.07
2018-03-03T11:23:17.843Z,96023.19
2018-03-03T11:25:46.165Z,96021.52
2018-03-03T11:28:14.528Z,96027.95
2018-03-03T11:30:42.844Z,96028.98
2018-03-03T11:33:11.728Z,96017.23
2018-03-03T11:35:40.083Z,96010.61
2018-03-03T11:38:08.396Z,96005.05
2018-03-03T11:40:37.677Z,96016.05
2018-03-03T11:43:05.960Z,96016.75
2018-03-03T11:45:34.460Z,96013.50
2018-03-03T11:48:03.673Z,96018.16
2018-03-03T11:50:32.004Z,96022.33
2018-03-03T11:53:01.013Z,96023.84
2018-03-03T11:55:29.664Z,96020.64
2018-03-03T11:57:58.018Z,96024.70
2018-03-03T12:00:26.397Z,96028.89
2018-03-03T12:02:54.656Z,96037.44
2018-03-03T12:05:24.391Z,96033.62
2018-03-03T12:07:52.707Z,96036.56
2018-03-03T12:10:21.092Z,96033.52
2018-03-03T12:12:49.775Z,96033.41
2018-03-03T12:15:17.896Z,96031.52
2018-03-03T12:17:46.191Z,96040.32
2018-03-03T12:20:16.080Z,96039.15
2018-03-03T12:22:44.896Z,96031.27
2018-03-03T12:25:13.785Z,96029.64
2018-03-03T12:27:42.374Z,96027.13
2018-03-03T12:30:11.189Z,96030.24
2018-03-03T12:32:39.529Z,96027.61
2018-03-03T12:35:07.988Z,96024.46
2018-03-03T12:37:37.078Z,96027.02
2018-03-03T12:40:06.796Z,96020.33
2018-03-03T12:42:35.949Z,96026.38
2018-03-03T12:45:04.916Z,96023.38
2018-03-03T12:47:33.505Z,96026.70
2018-03-03T12:50:02.140Z,96027.75
2018-03-03T12:52:30.535Z,96031.59
2018-03-03T12:54:58.896Z,96032.64
2018-03-03T12:57:27.273Z,96032.00
2018-03-03T12:59:55.595Z,96026.77
2018-03-03T13:02:24.438Z,96039.86
2018-03-03T13:04:52.765Z,96033.77
2018-03-03T13:07:21.072Z,96039.33
2018-03-03T13:09:49.563Z,96042.89
2018-03-03T13:12:17.936Z,96043.55
2018-03-03T13:14:46.308Z,96039.19
2018-03-03T13:17:15.350Z,96045.69
2018-03-03T13:19:43.716Z,96048.83
2018-03-03T13:22:12.209Z,96039.51
2018-03-03T13:24:40.488Z,96041.72
2018-03-03T13:27:08.627Z,96048.06
2018-03-03T13:29:36.932Z,96044.38
2018-03-03T13:32:05.271Z,96043.41
2018-03-03T13:34:33.615Z,96052.96
2018-03-03T13:37:02.140Z,96059.23
2018-03-03T13:39:30.551Z,96053.95
2018-03-03T13:41:58.911Z,96061.06
2018-03-03T13:44:27.036Z,96057.99
2018-03-03T13:46:55.353Z,96060.55
2018-03-03T13:49:23.664Z,96056.59
2018-03-03T13:51:52.032Z,96054.40
2018-03-03T13:54:20.539Z,96052.97
2018-03-03T13:56:49.078Z,96053.98
2018-03-03T13:59:17.941Z,96054.54
2018-03-03T14:01:47.546Z,96059.69
2018-03-03T14:04:16.078Z,96064.52
2018-03-03T14:06:44.551Z,96080.60
2018-03-03T14:09:12.939Z,96079.52
2018-03-03T14:11:41.556Z,96089.84
2018-03-03T14:14:10.197Z,96093.67
2018-03-03T14:16:38.740Z,96098.95
2018-03-03T14:19:08.382Z,96097.45
2018-03-03T14:21:37.038Z,96102.30
2018-03-03T14:24:05.494Z,96103.46
2018-03-03T14:26:34.104Z,96096.80
2018-03-03T14:29:04.352Z,96110.71
2018-03-03T14:31:33.951Z,96109.03
2018-03-03T14:34:03.341Z,96110.33
2018-03-03T14:36:32.361Z,96105.89
2018-03-03T14:39:01.246Z,96111.12
2018-03-03T14:41:30.500Z,96110.56
2018-03-03T14:43:59.666Z,96108.16
2018-03-03T14:46:28.262Z,96115.59
2018-03-03T14:48:57.594Z,96112.03
2018-03-03T14:51:26.671Z,96119.64
2018-03-03T14:53:55.157Z,96114.50
2018-03-03T14:56:23.912Z,96118.50
2018-03-03T14:58:52.994Z,96133.55
2018-03-03T15:01:22.231Z,96139.07
2018-03-03T15:03:51.237Z,96140.86
2018-03-03T15:06:20.857Z,96143.45
2018-03-03T15:08:51.168Z,96154.48
2018-03-03T15:11:21.896Z,96154.30
2018-03-03T15:13:51.709Z,96161.75
2018-03-03T15:16:21.730Z,96170.88
2018-03-03T15:18:50.457Z,96175.03
2018-03-03T15:21:19.037Z,96179.02
2018-03-03T15:23:47.869Z,96183.37
2018-03-03T15:26:18.106Z,96189.11
2018-03-03T15:28:47.019Z,96187.03
2018-03-03T15:31:16.303Z,96192.38
2018-03-03T15:33:44.779Z,96200.88
2018-03-03T15:36:12.952Z,96195.23
2018-03-03T15:38:41.251Z,96195.92
2018-03-03T15:41:09.607Z,96200.00
2018-03-03T15:43:37.916Z,96201.70
2018-03-03T15:46:07.003Z,96204.14
2018-03-03T15:48:36.020Z,96210.02
2018-03-03T15:51:04.336Z,96211.93
2018-03-03T15:53:32.651Z,96211.11
2018-03-03T15:56:01.012Z,96222.82
2018-03-03T15:58:30.508Z,96229.22
2018-03-03T16:00:58.908Z,96233.45
2018-03-03T16:03:27.981Z,96235.42
2018-03-03T16:05:56.720Z,96240.86
2018-03-03T16:08:25.400Z,96247.39
2018-03-03T16:10:53.704Z,96245.62
2018-03-03T16:13:22.789Z,96253.36
2018-03-03T16:15:53.625Z,96257.62
2018-03-03T16:18:21.948Z,96260.55
2018-03-03T16:20:50.291Z,96262.64
2018-03-03T16:23:18.437Z,96258.83
2018-03-03T16:25:46.819Z,96265.39
2018-03-03T16:28:15.181Z,96264.45
2018-03-03T16:30:44.058Z,96264.73
2018-03-03T16:33:12.644Z,96268.72
2018-03-03T16:35:41.464Z,96272.52
2018-03-03T16:38:09.808Z,96272.27
2018-03-03T16:40:38.112Z,96277.86
2018-03-03T16:43:06.419Z,96284.95
2018-03-03T16:45:35.287Z,96287.03
2018-03-03T16:48:04.373Z,96285.56
2018-03-03T16:50:32.814Z,96290.43
2018-03-03T16:53:01.117Z,96295.84
2018-03-03T16:55:29.931Z,96294.23
2018-03-03T16:57:59.127Z,96295.70
2018-03-03T17:00:33.259Z,96299.50
2018-03-03T17:03:01.787Z,96304.43
2018-03-03T17:05:30.620Z,96309.91
2018-03-03T17:07:59.104Z,96308.80
2018-03-03T17:10:27.458Z,96313.86
2018-03-03T17:12:55.768Z,96319.89
2018-03-03T17:15:25.575Z,96322.48
2018-03-03T17:17:53.941Z,96327.20
2018-03-03T17:20:22.268Z,96328.27
2018-03-03T17:22:50.576Z,96333.34
2018-03-03T17:25:19.335Z,96335.03
2018-03-03T17:27:47.652Z,96346.95
2018-03-03T17:30:15.973Z,96345.98
2018-03-03T17:32:44.307Z,96350.66
2018-03-03T17:35:13.152Z,96352.22
2018-03-03T17:37:41.742Z,96358.44
2018-03-03T17:40:10.059Z,96356.35
2018-03-03T17:42:38.746Z,96357.24
2018-03-03T17:45:07.280Z,96358.64
2018-03-03T17:47:35.727Z,96358.47
2018-03-03T17:50:04.853Z,96353.42
2018-03-03T17:52:33.237Z,96361.22
2018-03-03T17:55:01.709Z,96358.84
2018-03-03T17:57:30.077Z,96365.26
2018-03-03T17:59:58.764Z,96362.73
2018-03-03T18:02:27.621Z,96368.36
2018-03-03T18:04:56.650Z,96363.72
2018-03-03T18:07:25.463Z,96370.12
2018-03-03T18:09:54.199Z,96375.38
2018-03-03T18:12:22.513Z,96370.64
2018-03-03T18:14:50.926Z,96368.45
2018-03-03T18:17:19.252Z,96370.19
2018-03-03T18:19:47.904Z,96372.23
2018-03-03T18:22:16.279Z,96379.03
2018-03-03T18:24:45.326Z,96376.98
2018-03-03T18:27:13.676Z,96376.58
2018-03-03T18:29:42.662Z,96373.37
2018-03-03T18:32:11.348Z,96375.50
2018-03-03T18:34:39.757Z,96376.28
2018-03-03T18:37:08.112Z,96382.69
2018-03-03T18:39:37.458Z,96382.81
2018-03-03T18:42:05.763Z,96391.13
2018-03-03T18:44:34.812Z,96396.19
2018-03-03T18:47:03.149Z,96394.63
2018-03-03T18:49:31.457Z,96392.31
2018-03-03T18:52:00.754Z,96399.11
2018-03-03T18:54:29.602Z,96398.23
2018-03-03T18:56:58.000Z,96394.26
2018-03-03T18:59:26.312Z,96401.15
2018-03-03T19:01:54.616Z,96408.15
2018-03-03T19:04:22.972Z,96415.42
2018-03-03T19:06:51.285Z,96416.39
2018-03-03T19:09:19.592Z,96421.83
2018-03-03T19:11:47.936Z,96420.75
2018-03-03T19:14:16.008Z,96421.80
2018-03-03T19:16:44.317Z,96429.19
2018-03-03T19:19:12.577Z,96428.42
2018-03-03T19:21:40.964Z,96433.93
2018-03-03T19:24:09.216Z,96428.67
2018-03-03T19:26:38.148Z,96428.29
2018-03-03T19:29:06.280Z,96427.10
2018-03-03T19:31:34.762Z,96437.78
2018-03-03T19:34:03.088Z,96444.95
2018-03-03T19:36:31.399Z,96444.53
2018-03-03T19:38:59.836Z,96453.95
2018-03-03T19:41:28.913Z,96451.81
2018-03-03T19:43:57.173Z,96449.40
2018-03-03T19:46:26.155Z,96455.70
2018-03-03T19:48:54.811Z,96456.54
2018-03-03T19:51:23.503Z,96457.91
2018-03-03T19:53:52.032Z,96462.84
2018-03-03T19:56:20.353Z,96461.29
2018-03-03T19:58:48.924Z,96462.78
2018-03-03T20:01:18.176Z,96462.98
2018-03-03T20:03:47.044Z,96467.17
2018-03-03T20:06:16.303Z,96460.58
2018-03-03T20:08:44.661Z,96467.44
2018-03-03T20:11:13.095Z,96467.92
2018-03-03T20:13:41.524Z,96474.43
2018-03-03T20:16:09.846Z,96476.84
2018-03-03T20:18:38.198Z,96482.39
2018-03-03T20:21:06.656Z,96485.55
2018-03-03T20:23:34.993Z,96484.97
2018-03-03T20:26:03.321Z,96486.34
2018-03-03T20:28:32.336Z,96488.54
2018-03-03T20:31:00.657Z,96482.91
2018-03-03T20:33:28.988Z,96487.66
2018-03-03T20:35:57.361Z,96490.62
2018-03-03T20:38:26.358Z,96490.73
2018-03-03T20:40:54.674Z,96487.06
2018-03-03T20:43:23.060Z,96489.63
2018-03-03T20:45:51.360Z,96488.22
2018-03-03T20:48:19.676Z,96487.59
2018-03-03T20:50:48.860Z,96487.09
2018-03-03T20:53:17.824Z,96494.16
2018-03-03T20:55:46.131Z,96488.24
2018-03-03T20:58:14.444Z,96494.34
2018-03-03T21:00:43.333Z,96492.69
2018-03-03T21:03:13.132Z,96488.77
2018-03-03T21:05:42.489Z,96484.94
2018-03-03T21:08:11.122Z,96488.33
2018-03-03T21:10:39.880Z,96481.88
2018-03-03T21:13:08.189Z,96489.92
2018-03-03T21:15:36.540Z,96481.59
2018-03-03T21:18:05.445Z,96481.86
2018-03-03T21:20:34.436Z,96485.54
2018-03-03T21:23:02.744Z,96480.66
2018-03-03T21:25:31.184Z,96484.63
2018-03-03T21:27:59.516Z,96483.09
2018-03-03T21:30:27.959Z,96483.84
2018-03-03T21:32:56.324Z,96481.67
2018-03-03T21:35:24.772Z,96489.06
2018-03-03T21:37:53.885Z,96489.66
2018-03-03T21:40:22.872Z,96494.33
2018-03-03T21:42:51.193Z,96487.16
2018-03-03T21:45:19.948Z,96488.90
2018-03-03T21:47:48.252Z,96491.84
2018-03-03T21:50:17.639Z,96495.34
2018-03-03T21:52:46.224Z,96490.47
2018-03-03T21:55:15.131Z,96499.05
2018-03-03T21:57:44.416Z,96501.91
2018-03-03T22:00:13.252Z,96502.45
2018-03-03T22:02:42.502Z,96510.59
2018-03-03T22:05:11.309Z,96512.13
2018-03-03T22:07:40.396Z,96515.41
2018-03-03T22:10:08.973Z,96511.17
2018-03-03T22:12:37.969Z,96517.15
2018-03-03T22:15:07.043Z,96517.92
2018-03-03T22:17:36.265Z,96515.61
2018-03-03T22:20:05.258Z,96513.25
2018-03-03T22:22:35.272Z,96518.22
2018-03-03T22:25:03.598Z,96516.55
2018-03-03T22:27:33.092Z,96522.19
2018-03-03T22:30:01.445Z,96517.87
2018-03-03T22:32:29.937Z,96516.86
2018-03-03T22:34:58.412Z,96518.67
2018-03-03T22:37:27.356Z,96516.53
2018-03-03T22:39:55.695Z,96520.53
2018-03-03T22:42:24.012Z,96523.95
2018-03-03T22:44:52.221Z,96524.52
2018-03-03T22:47:21.544Z,96524.73
2018-03-03T22:49:50.012Z,96527.95
2018-03-03T22:52:18.577Z,96520.03
2018-03-03T22:54:47.112Z,96530.33
2018-03-03T22:57:15.948Z,96531.97
2018-03-03T22:59:44.861Z,96530.37
2018-03-03T23:02:14.398Z,96534.89
2018-03-03T23:04:43.185Z,96543.05
2018-03-03T23:07:11.492Z,96537.77
2018-03-03T23:09:39.777Z,96541.06
2018-03-03T23:12:08.093Z,96542.26
2018-03-03T23:14:36.333Z,96540.15
2018-03-03T23:17:04.939Z,96552.55
2018-03-03T23:19:33.576Z,96555.98
2018-03-03T23:22:02.111Z,96547.48
2018-03-03T23:24:30.428Z,96551.02
2018-03-03T23:26:58.733Z,96567.77
2018-03-03T23:29:27.100Z,96571.31
2018-03-03T23:31:55.548Z,96580.63
2018-03-03T23:34:24.128Z,96586.97
2018-03-03T23:36:52.438Z,96587.70
2018-03-03T23:39:20.886Z,96588.11
2018-03-03T23:41:49.206Z,96584.00
2018-03-03T23:44:17.328Z,96586.13
2018-03-03T23:46:45.444Z,96583.38
2018-03-03T23:49:13.830Z,96587.15
2018-03-03T23:51:42.260Z,96594.70
2018-03-03T23:54:10.601Z,96614.23
2018-03-03T23:56:39.416Z,96614.64
2018-03-03T23:59:08.024Z,96624.83
